Time;durP1;ratioP1;P1;durP2;ratioP2;P2;SDS_P1;SDS_P2;PMS_P1;PMS_P2;Temp;Humidity;BMP_temperature;BMP_pressure;BME280_temperature;BME280_humidity;BME280_pressure;Samples;Min_cycle;Max_cycle;Signal;HPM_P1;HPM_P2
2020/12/27 00:02:09;;;;;;;9.20;4.00;;;0.40;99.90;;;;;;5013091;28;20104;-69
2020/12/27 00:04:37;;;;;;;12.70;4.00;;;0.40;99.90;;;;;;5006597;28;20593;-70
2020/12/27 00:07:07;;;;;;;8.70;3.83;;;0.30;99.90;;;;;;5006642;28;20490;-69
2020/12/27 00:09:38;;;;;;;9.85;3.95;;;0.40;99.90;;;;;;5006636;28;20137;-70
2020/12/27 00:12:05;;;;;;;11.02;4.45;;;0.30;99.90;;;;;;5010049;28;20153;-70
2020/12/27 00:14:32;;;;;;;15.68;3.50;;;0.40;99.90;;;;;;5016072;28;20485;-70
2020/12/27 00:17:07;;;;;;;7.90;3.22;;;0.40;99.90;;;;;;5012097;28;20124;-69
2020/12/27 00:19:33;;;;;;;5.32;2.45;;;0.40;99.90;;;;;;5024014;28;20158;-70
2020/12/27 00:22:00;;;;;;;7.85;2.17;;;0.30;99.90;;;;;;5012154;28;20378;-69
2020/12/27 00:24:26;;;;;;;5.57;2.75;;;0.30;99.90;;;;;;5011356;28;20115;-69
2020/12/27 00:26:52;;;;;;;8.18;2.92;;;0.30;99.90;;;;;;5011061;28;20046;-70
2020/12/27 00:29:19;;;;;;;7.32;3.30;;;0.30;99.90;;;;;;5008756;28;20112;-69
2020/12/27 00:31:49;;;;;;;6.40;2.95;;;0.30;99.90;;;;;;5011648;28;20387;-70
2020/12/27 00:34:16;;;;;;;8.68;2.70;;;0.40;99.90;;;;;;5004445;28;20211;-69
2020/12/27 00:36:42;;;;;;;10.88;2.58;;;0.30;99.90;;;;;;5008340;28;20077;-70
2020/12/27 00:39:08;;;;;;;7.88;2.50;;;0.30;99.90;;;;;;5011682;28;20524;-69
2020/12/27 00:41:35;;;;;;;9.05;3.17;;;0.30;99.90;;;;;;5010731;28;20081;-69
2020/12/27 00:44:02;;;;;;;5.80;2.72;;;0.30;99.90;;;;;;5012178;28;20085;-69
2020/12/27 00:46:29;;;;;;;9.10;3.35;;;0.30;99.90;;;;;;5008128;28;20189;-69
2020/12/27 00:48:56;;;;;;;9.18;3.20;;;0.30;99.90;;;;;;5002537;28;20077;-69
2020/12/27 00:51:24;;;;;;;6.95;2.88;;;0.30;99.90;;;;;;5001918;28;20479;-70
2020/12/27 00:53:50;;;;;;;7.35;2.75;;;0.30;99.90;;;;;;5011810;28;20081;-70
2020/12/27 00:56:18;;;;;;;5.07;2.22;;;0.20;99.90;;;;;;4994975;28;20486;-68
2020/12/27 00:58:44;;;;;;;6.13;2.47;;;0.30;99.90;;;;;;5005376;28;20056;-68
2020/12/27 01:01:12;;;;;;;5.60;2.78;;;0.20;99.90;;;;;;5004460;28;20078;-68
2020/12/27 01:03:42;;;;;;;7.50;2.58;;;0.20;99.90;;;;;;5000418;28;20054;-68
2020/12/27 01:06:09;;;;;;;3.33;1.98;;;0.30;99.90;;;;;;5004926;28;20077;-68
2020/12/27 01:08:36;;;;;;;5.30;1.85;;;0.20;99.90;;;;;;5011276;28;20088;-69
2020/12/27 01:11:04;;;;;;;9.07;2.80;;;0.20;99.90;;;;;;5011454;28;20053;-68
2020/12/27 01:13:30;;;;;;;5.60;2.30;;;0.20;99.90;;;;;;5010975;28;20084;-68
2020/12/27 01:15:57;;;;;;;8.63;3.50;;;0.20;99.90;;;;;;5012631;28;20124;-68
2020/12/27 01:18:23;;;;;;;8.82;2.72;;;0.30;99.90;;;;;;5011346;28;20137;-68
2020/12/27 01:20:50;;;;;;;7.15;2.72;;;0.30;99.90;;;;;;5004729;28;20050;-68
2020/12/27 01:23:17;;;;;;;5.60;1.95;;;0.20;99.90;;;;;;5011197;28;20045;-68
2020/12/27 01:25:47;;;;;;;6.07;2.88;;;0.20;99.90;;;;;;5011677;28;20466;-70
2020/12/27 01:28:14;;;;;;;6.55;2.35;;;0.20;99.90;;;;;;5011718;28;20052;-71
2020/12/27 01:30:41;;;;;;;6.38;2.35;;;0.20;99.90;;;;;;5011686;28;20514;-69
2020/12/27 01:33:08;;;;;;;4.95;1.95;;;0.20;99.90;;;;;;5011121;28;20116;-69
2020/12/27 01:35:34;;;;;;;7.78;2.33;;;0.10;99.90;;;;;;5009379;28;20046;-70
2020/12/27 01:38:01;;;;;;;8.90;2.78;;;0.20;99.90;;;;;;5010438;28;20196;-70
2020/12/27 01:40:27;;;;;;;6.65;2.65;;;0.20;99.90;;;;;;5010546;28;20133;-70
2020/12/27 01:42:58;;;;;;;11.35;2.95;;;0.20;99.90;;;;;;5010295;28;20129;-70
2020/12/27 01:45:25;;;;;;;4.85;1.50;;;0.30;99.90;;;;;;5011379;28;20054;-70
2020/12/27 01:47:52;;;;;;;8.45;2.50;;;0.20;99.80;;;;;;5010692;28;20050;-70
2020/12/27 01:50:20;;;;;;;2.75;1.20;;;0.20;99.90;;;;;;5011331;28;20045;-70
2020/12/27 01:52:46;;;;;;;6.95;2.42;;;0.20;99.60;;;;;;5009226;28;20138;-69
2020/12/27 01:55:14;;;;;;;4.28;1.30;;;0.20;99.90;;;;;;5011473;28;20077;-70
2020/12/27 01:57:52;;;;;;;11.02;2.42;;;0.20;99.90;;;;;;5010588;28;20495;-70
2020/12/27 02:00:20;;;;;;;4.10;1.63;;;0.10;99.90;;;;;;5006680;28;20497;-69
2020/12/27 02:02:47;;;;;;;4.47;1.70;;;0.10;99.90;;;;;;5002055;28;20050;-69
2020/12/27 02:05:14;;;;;;;5.30;1.80;;;0.10;99.90;;;;;;5009294;28;20073;-70
2020/12/27 02:07:43;;;;;;;8.45;2.00;;;0.10;99.90;;;;;;5009279;28;20085;-69
2020/12/27 02:10:11;;;;;;;4.10;1.58;;;0.10;99.90;;;;;;5012186;28;20054;-70
2020/12/27 02:12:37;;;;;;;4.95;1.70;;;0.10;99.90;;;;;;5027511;28;20127;-69
2020/12/27 02:15:05;;;;;;;7.32;2.58;;;0.10;99.90;;;;;;5027199;28;20049;-69
2020/12/27 02:17:31;;;;;;;3.78;2.13;;;0.10;99.90;;;;;;5016700;28;20124;-69
2020/12/27 02:19:58;;;;;;;2.97;1.15;;;0.10;99.80;;;;;;5019554;28;20045;-70
2020/12/27 02:22:24;;;;;;;5.93;1.40;;;0.10;99.70;;;;;;5015431;28;20125;-70
2020/12/27 02:24:50;;;;;;;4.38;1.08;;;0.10;99.80;;;;;;5017696;28;20137;-69
2020/12/27 02:27:17;;;;;;;8.15;1.65;;;0.10;99.80;;;;;;5019646;28;20060;-70
2020/12/27 02:29:47;;;;;;;5.20;1.50;;;0.10;99.60;;;;;;5015777;28;20060;-69
2020/12/27 02:32:14;;;;;;;9.65;2.83;;;0.10;99.50;;;;;;5015605;28;20512;-69
2020/12/27 02:34:41;;;;;;;4.45;1.20;;;0.10;99.40;;;;;;5028151;28;20077;-70
2020/12/27 02:37:07;;;;;;;3.85;1.30;;;0.10;99.40;;;;;;5017953;28;20125;-69
2020/12/27 02:39:33;;;;;;;4.68;0.93;;;0.10;99.90;;;;;;5010663;28;20045;-69
2020/12/27 02:42:00;;;;;;;2.53;1.17;;;0.10;99.10;;;;;;5018839;28;20042;-69
2020/12/27 02:44:26;;;;;;;4.20;1.52;;;0.10;99.50;;;;;;5015159;28;20169;-70
2020/12/27 02:46:52;;;;;;;3.15;1.30;;;0.00;99.90;;;;;;5022632;28;20141;-70
2020/12/27 02:49:19;;;;;;;5.05;1.00;;;0.10;99.30;;;;;;5010514;28;20573;-70
2020/12/27 02:51:45;;;;;;;3.13;1.25;;;0.10;99.40;;;;;;5020431;28;20077;-69
2020/12/27 02:54:11;;;;;;;4.57;0.90;;;0.10;99.40;;;;;;5012629;28;20038;-69
2020/12/27 02:56:37;;;;;;;6.78;1.17;;;0.10;99.50;;;;;;5012724;28;20116;-70
2020/12/27 02:59:04;;;;;;;3.50;1.17;;;0.00;99.30;;;;;;5009899;28;20046;-69
2020/12/27 03:01:30;;;;;;;4.68;1.33;;;0.00;99.50;;;;;;5013223;28;20574;-70
2020/12/27 03:03:56;;;;;;;3.63;1.55;;;0.10;99.40;;;;;;5009191;28;20046;-69
2020/12/27 03:06:27;;;;;;;3.13;1.25;;;0.20;99.30;;;;;;5010245;28;20094;-69
2020/12/27 03:08:56;;;;;;;3.78;0.82;;;0.10;99.00;;;;;;5010188;28;20049;-69
2020/12/27 03:11:26;;;;;;;4.18;0.90;;;0.20;98.90;;;;;;5010344;28;20503;-70
2020/12/27 03:13:53;;;;;;;3.83;1.15;;;0.20;99.30;;;;;;5013301;28;20474;-69
2020/12/27 03:16:20;;;;;;;2.95;0.82;;;0.10;98.80;;;;;;5016539;28;20450;-70
2020/12/27 03:18:47;;;;;;;2.20;0.93;;;0.20;98.90;;;;;;5022916;28;20054;-69
2020/12/27 03:21:15;;;;;;;3.67;1.10;;;0.10;98.80;;;;;;5016201;28;20132;-69
2020/12/27 03:23:41;;;;;;;3.30;1.00;;;0.20;98.80;;;;;;5022696;28;20105;-70
2020/12/27 03:26:08;;;;;;;8.02;1.20;;;0.30;98.50;;;;;;5024576;28;20082;-70
2020/12/27 03:28:34;;;;;;;3.25;0.65;;;0.30;98.50;;;;;;5010735;28;20041;-69
2020/12/27 03:31:00;;;;;;;1.95;0.75;;;0.20;98.50;;;;;;5014687;28;20156;-70
2020/12/27 03:33:26;;;;;;;2.13;0.90;;;0.20;98.70;;;;;;5013715;28;20056;-70
2020/12/27 03:35:53;;;;;;;5.13;1.20;;;0.30;98.20;;;;;;5016284;28;20129;-69
2020/12/27 03:38:19;;;;;;;5.97;1.35;;;0.40;98.40;;;;;;5011166;28;20077;-69
2020/12/27 03:40:46;;;;;;;4.28;1.45;;;0.40;98.60;;;;;;5022977;28;20124;-70
2020/12/27 03:43:13;;;;;;;2.28;0.80;;;0.40;98.30;;;;;;5023460;28;20091;-70
2020/12/27 03:45:41;;;;;;;9.82;1.25;;;0.30;98.30;;;;;;5023981;28;20121;-69
2020/12/27 03:48:08;;;;;;;3.30;0.85;;;0.30;98.50;;;;;;5009703;28;20467;-69
2020/12/27 03:50:34;;;;;;;2.78;1.10;;;0.40;98.50;;;;;;5020286;28;20092;-70
2020/12/27 03:53:01;;;;;;;1.70;0.80;;;0.40;98.40;;;;;;5011237;28;20104;-70
2020/12/27 03:55:27;;;;;;;2.38;0.98;;;0.40;98.30;;;;;;5020855;28;20359;-70
2020/12/27 03:57:53;;;;;;;5.18;1.38;;;0.40;98.70;;;;;;5023278;28;20145;-70
2020/12/27 04:00:20;;;;;;;2.53;1.42;;;0.40;98.40;;;;;;5024676;28;20481;-70
2020/12/27 04:02:46;;;;;;;2.95;0.82;;;0.40;98.60;;;;;;5011769;28;20149;-70
2020/12/27 04:05:13;;;;;;;4.82;1.23;;;0.40;98.70;;;;;;5018494;28;20060;-69
2020/12/27 04:07:39;;;;;;;6.68;1.52;;;0.40;98.80;;;;;;5011057;28;20341;-69
2020/12/27 04:10:14;;;;;;;6.93;1.10;;;0.40;98.90;;;;;;5017641;28;20053;-70
2020/12/27 04:12:40;;;;;;;2.95;1.20;;;0.40;99.20;;;;;;5009469;28;20104;-69
2020/12/27 04:15:06;;;;;;;3.95;1.10;;;0.40;98.70;;;;;;5011271;28;20049;-70
2020/12/27 04:17:33;;;;;;;3.50;1.15;;;0.40;98.60;;;;;;5011764;28;20129;-70
2020/12/27 04:19:59;;;;;;;4.28;1.50;;;0.40;98.90;;;;;;5014780;28;20492;-70
2020/12/27 04:22:25;;;;;;;11.77;1.27;;;0.40;99.10;;;;;;5011117;28;20049;-69
2020/12/27 04:24:52;;;;;;;4.78;1.38;;;0.40;98.80;;;;;;5022292;28;20050;-69
2020/12/27 04:27:18;;;;;;;8.40;1.88;;;0.40;98.70;;;;;;5017132;28;20053;-69
2020/12/27 04:29:44;;;;;;;3.30;1.13;;;0.40;99.20;;;;;;5009757;28;20531;-69
2020/12/27 04:32:11;;;;;;;6.18;1.33;;;0.40;99.00;;;;;;5018972;28;20046;-70
2020/12/27 04:34:38;;;;;;;1.90;1.10;;;0.30;99.30;;;;;;5023272;28;20134;-70
2020/12/27 04:37:21;;;;;;;3.35;0.93;;;0.30;99.30;;;;;;5014450;28;20135;-69
2020/12/27 04:39:47;;;;;;;2.67;1.40;;;0.40;99.10;;;;;;5020194;28;20133;-70
2020/12/27 04:42:14;;;;;;;5.78;1.67;;;0.40;99.40;;;;;;5009975;28;20239;-69
2020/12/27 04:44:41;;;;;;;3.65;1.23;;;0.30;99.50;;;;;;5019771;28;20045;-70
2020/12/27 04:47:08;;;;;;;4.85;1.50;;;0.30;99.60;;;;;;5018214;28;20050;-70
2020/12/27 04:49:35;;;;;;;8.38;1.60;;;0.30;99.60;;;;;;5021273;28;20172;-70
2020/12/27 04:52:02;;;;;;;7.78;1.45;;;0.20;99.60;;;;;;5009544;28;20560;-70
2020/12/27 04:54:29;;;;;;;6.15;1.70;;;0.30;99.80;;;;;;5022888;28;20570;-69
2020/12/27 04:56:57;;;;;;;3.17;1.63;;;0.20;99.80;;;;;;5006958;28;20077;-70
2020/12/27 04:59:23;;;;;;;4.25;1.25;;;0.20;99.70;;;;;;5013585;28;20116;-69
2020/12/27 05:01:50;;;;;;;4.10;1.95;;;0.20;99.90;;;;;;5019914;28;20052;-69
2020/12/27 05:04:24;;;;;;;4.85;1.60;;;0.20;99.80;;;;;;5026092;28;20046;-70
2020/12/27 05:06:54;;;;;;;3.95;1.75;;;0.30;99.80;;;;;;5012374;28;20046;-70
2020/12/27 05:09:25;;;;;;;2.53;1.30;;;0.20;99.90;;;;;;5015870;28;20141;-70
2020/12/27 05:11:53;;;;;;;5.75;1.50;;;0.20;99.90;;;;;;5032554;28;20107;-69
2020/12/27 05:14:26;;;;;;;4.78;1.85;;;0.10;99.90;;;;;;5013360;28;21380;-69
2020/12/27 05:16:55;;;;;;;5.68;2.72;;;0.10;99.90;;;;;;5016844;28;20128;-69
2020/12/27 05:19:21;;;;;;;11.50;2.67;;;0.10;99.90;;;;;;5012762;28;20129;-69
2020/12/27 05:21:48;;;;;;;8.20;1.67;;;0.10;99.90;;;;;;5026867;28;20489;-69
2020/12/27 05:24:17;;;;;;;3.78;1.40;;;0.20;99.90;;;;;;5014206;28;20122;-69
2020/12/27 05:26:45;;;;;;;3.35;1.90;;;0.20;99.90;;;;;;5011344;28;20062;-70
2020/12/27 05:29:28;;;;;;;8.32;2.30;;;0.10;99.90;;;;;;5023356;28;20053;-69
2020/12/27 05:31:55;;;;;;;4.70;1.63;;;0.10;99.90;;;;;;5013592;28;20057;-70
2020/12/27 05:34:21;;;;;;;7.30;2.70;;;0.10;99.90;;;;;;5025732;28;20073;-69
2020/12/27 05:36:48;;;;;;;5.40;2.70;;;0.00;99.90;;;;;;5030346;28;20153;-69
2020/12/27 05:39:15;;;;;;;5.38;2.28;;;0.10;99.90;;;;;;5025255;28;20049;-69
2020/12/27 05:41:41;;;;;;;8.20;3.33;;;0.00;99.90;;;;;;5020889;28;20125;-69
2020/12/27 05:44:08;;;;;;;12.52;5.05;;;0.00;99.90;;;;;;5011373;28;20428;-69
2020/12/27 05:46:34;;;;;;;7.28;3.13;;;0.00;99.90;;;;;;4992804;28;20594;-69
2020/12/27 05:49:01;;;;;;;6.75;2.65;;;0.10;99.90;;;;;;5011618;28;20077;-69
2020/12/27 05:51:33;;;;;;;5.15;2.30;;;0.10;99.90;;;;;;5014679;28;20108;-69
2020/12/27 05:54:05;;;;;;;7.57;2.47;;;0.10;99.90;;;;;;5013334;28;20091;-69
2020/12/27 05:56:37;;;;;;;7.00;2.88;;;0.10;99.90;;;;;;5017978;28;20134;-69
2020/12/27 05:59:04;;;;;;;8.63;3.45;;;0.10;99.90;;;;;;5012208;28;20396;-69
2020/12/27 06:01:37;;;;;;;5.20;2.45;;;0.00;99.90;;;;;;5024655;28;20051;-69
2020/12/27 06:04:03;;;;;;;12.10;3.05;;;0.00;99.90;;;;;;5025471;28;20046;-69
2020/12/27 06:06:30;;;;;;;5.72;2.70;;;0.00;99.90;;;;;;5023093;28;20137;-69
2020/12/27 06:09:06;;;;;;;5.25;2.60;;;0.10;99.90;;;;;;5011324;28;20050;-70
2020/12/27 06:11:52;;;;;;;8.93;3.33;;;0.00;99.90;;;;;;4999425;28;20057;-70
2020/12/27 06:14:38;;;;;;;8.90;3.00;;;0.00;99.90;;;;;;5012138;28;20434;-70
2020/12/27 06:17:12;;;;;;;7.93;3.30;;;0.00;99.90;;;;;;5030747;28;20047;-69
2020/12/27 06:19:57;;;;;;;10.70;3.83;;;0.00;99.90;;;;;;5024178;28;20391;-70
2020/12/27 06:22:32;;;;;;;7.25;3.33;;;0.00;99.90;;;;;;5006800;28;20137;-69
2020/12/27 06:25:00;;;;;;;5.63;2.83;;;0.10;99.90;;;;;;5027593;28;20169;-69
2020/12/27 06:27:28;;;;;;;6.05;2.15;;;0.00;99.90;;;;;;5028186;28;20696;-69
2020/12/27 06:30:12;;;;;;;5.90;2.90;;;0.10;99.90;;;;;;5020519;28;20078;-69
2020/12/27 06:32:45;;;;;;;8.95;3.28;;;0.00;99.90;;;;;;5010862;28;20080;-70
2020/12/27 06:35:12;;;;;;;6.00;1.95;;;0.00;99.90;;;;;;5019282;28;20136;-69
2020/12/27 06:37:44;;;;;;;6.05;3.22;;;0.00;99.90;;;;;;5030811;28;20096;-70
2020/12/27 06:40:13;;;;;;;8.00;2.13;;;0.00;99.90;;;;;;5011501;28;20525;-69
2020/12/27 06:42:40;;;;;;;7.03;2.25;;;0.00;99.90;;;;;;5008807;28;20213;-69
2020/12/27 06:45:25;;;;;;;9.90;3.17;;;0.00;99.90;;;;;;5011202;28;20049;-69
2020/12/27 06:47:54;;;;;;;7.10;2.30;;;0.00;99.90;;;;;;5012197;28;20487;-69
2020/12/27 06:50:22;;;;;;;8.00;3.40;;;0.00;99.90;;;;;;5022813;28;20422;-69
2020/12/27 06:52:49;;;;;;;5.30;2.88;;;0.00;99.90;;;;;;5010502;28;20539;-70
2020/12/27 06:55:35;;;;;;;6.38;2.28;;;0.00;99.90;;;;;;5020200;28;20124;-69
2020/12/27 06:58:15;;;;;;;5.88;2.25;;;0.10;99.90;;;;;;5009915;28;20181;-70
2020/12/27 07:00:41;;;;;;;4.85;2.60;;;0.10;99.90;;;;;;5009990;28;20122;-70
2020/12/27 07:03:22;;;;;;;6.45;2.40;;;0.10;99.90;;;;;;5010500;28;20050;-69
2020/12/27 07:05:49;;;;;;;6.10;2.20;;;0.00;99.90;;;;;;5024218;28;20083;-70
2020/12/27 07:08:43;;;;;;;8.25;2.60;;;0.00;99.90;;;;;;5008549;28;20467;-69
2020/12/27 07:11:10;;;;;;;6.88;3.50;;;0.10;99.90;;;;;;4998404;28;20081;-70
2020/12/27 07:13:45;;;;;;;12.82;3.88;;;0.10;99.90;;;;;;5009929;28;20057;-70
2020/12/27 07:16:17;;;;;;;6.07;2.60;;;0.10;99.90;;;;;;5027676;28;20073;-70
2020/12/27 07:18:48;;;;;;;6.70;3.35;;;0.10;99.90;;;;;;5018277;28;20114;-69
2020/12/27 07:21:20;;;;;;;6.93;3.42;;;0.10;99.90;;;;;;5022115;28;20529;-70
2020/12/27 07:24:09;;;;;;;7.72;4.38;;;0.10;99.90;;;;;;5017635;28;20104;-70
2020/12/27 07:26:45;;;;;;;13.45;4.15;;;0.00;99.90;;;;;;5009458;28;20077;-69
2020/12/27 07:29:15;;;;;;;8.15;3.83;;;0.10;99.90;;;;;;5013556;28;20056;-69
2020/12/27 07:31:43;;;;;;;6.60;3.28;;;0.10;99.90;;;;;;5017134;28;20125;-70
2020/12/27 07:34:13;;;;;;;7.53;2.97;;;0.10;99.90;;;;;;5007729;28;20264;-70
2020/12/27 07:36:40;;;;;;;5.80;2.83;;;0.10;99.90;;;;;;5009414;28;20125;-69
2020/12/27 07:39:59;;;;;;;8.93;4.38;;;0.20;99.90;;;;;;5011967;28;20091;-70
2020/12/27 07:42:30;;;;;;;5.90;2.60;;;0.20;99.90;;;;;;5009708;28;20202;-70
2020/12/27 07:45:02;;;;;;;7.00;3.42;;;0.30;99.90;;;;;;5014265;28;20195;-69
2020/12/27 07:47:29;;;;;;;6.15;2.70;;;0.30;99.90;;;;;;5009562;28;20062;-69
2020/12/27 07:50:12;;;;;;;8.40;3.67;;;0.30;99.90;;;;;;5012813;28;20168;-70
2020/12/27 07:52:49;;;;;;;6.63;2.40;;;0.30;99.90;;;;;;5016084;28;20155;-70
2020/12/27 07:55:27;;;;;;;7.97;4.10;;;0.30;99.90;;;;;;5011280;28;20121;-70
2020/12/27 07:57:54;;;;;;;6.78;3.00;;;0.30;99.90;;;;;;5023134;28;20112;-69
2020/12/27 08:00:22;;;;;;;6.35;3.08;;;0.30;99.90;;;;;;5023169;28;20172;-70
2020/12/27 08:02:49;;;;;;;6.15;3.13;;;0.30;99.90;;;;;;5024464;28;20128;-69
2020/12/27 08:05:17;;;;;;;6.57;2.65;;;0.40;99.90;;;;;;5015575;28;20088;-69
2020/12/27 08:07:43;;;;;;;7.88;3.08;;;0.40;99.90;;;;;;5008397;28;20145;-70
2020/12/27 08:10:28;;;;;;;7.57;3.05;;;0.40;99.90;;;;;;5019237;28;20123;-70
2020/12/27 08:12:58;;;;;;;5.85;3.05;;;0.50;99.90;;;;;;5027729;28;20133;-69
2020/12/27 08:15:26;;;;;;;5.70;3.05;;;0.50;99.90;;;;;;5014739;28;20103;-69
2020/12/27 08:18:07;;;;;;;8.10;4.18;;;0.60;99.90;;;;;;5013938;28;20151;-69
2020/12/27 08:20:47;;;;;;;5.72;2.45;;;0.70;99.90;;;;;;5014888;28;20049;-69
2020/12/27 08:23:13;;;;;;;6.55;2.67;;;0.70;99.90;;;;;;5012783;28;20046;-70
2020/12/27 08:25:40;;;;;;;10.68;3.35;;;0.70;99.90;;;;;;5009188;28;20185;-69
2020/12/27 08:28:10;;;;;;;6.93;2.40;;;0.80;99.90;;;;;;5009178;28;20523;-70
2020/12/27 08:30:37;;;;;;;7.57;3.28;;;0.80;99.90;;;;;;5016731;28;20064;-69
2020/12/27 08:33:05;;;;;;;8.35;2.80;;;0.90;99.90;;;;;;5014205;28;20132;-70
2020/12/27 08:35:31;;;;;;;6.40;3.20;;;1.00;99.90;;;;;;5013729;28;20046;-70
2020/12/27 08:38:29;;;;;;;4.95;2.35;;;1.00;99.90;;;;;;5011396;28;20085;-70
2020/12/27 08:41:07;;;;;;;6.63;2.22;;;1.00;99.90;;;;;;5009023;28;20046;-70
2020/12/27 08:44:02;;;;;;;5.85;2.22;;;1.10;99.90;;;;;;5023734;28;20297;-70
2020/12/27 08:46:37;;;;;;;5.80;2.65;;;1.10;99.90;;;;;;5013126;28;20064;-70
2020/12/27 08:49:33;;;;;;;5.55;2.67;;;1.20;99.90;;;;;;5018714;28;20240;-70
2020/12/27 08:52:20;;;;;;;5.45;2.30;;;1.30;99.90;;;;;;5004906;28;20103;-70
2020/12/27 08:54:52;;;;;;;6.30;1.90;;;1.40;99.90;;;;;;5018283;28;20045;-70
2020/12/27 08:57:19;;;;;;;7.45;2.00;;;1.50;99.90;;;;;;5024593;28;20087;-70
2020/12/27 09:00:01;;;;;;;5.60;2.33;;;1.60;99.90;;;;;;5030034;28;20077;-70
2020/12/27 09:02:28;;;;;;;4.63;1.90;;;1.60;99.90;;;;;;5027297;28;20049;-70
2020/12/27 09:05:11;;;;;;;4.07;1.95;;;1.70;99.90;;;;;;5010060;28;20129;-70
2020/12/27 09:07:40;;;;;;;5.82;1.48;;;1.80;99.90;;;;;;4997454;28;20112;-70
2020/12/27 09:10:25;;;;;;;4.50;2.08;;;1.80;99.90;;;;;;5015175;28;20053;-70
2020/12/27 09:13:06;;;;;;;4.10;1.65;;;1.90;99.90;;;;;;5015108;28;20054;-69
2020/12/27 09:15:34;;;;;;;5.18;1.70;;;1.90;99.90;;;;;;5015656;28;20140;-69
2020/12/27 09:18:04;;;;;;;6.50;2.15;;;2.00;99.90;;;;;;5012180;28;20136;-69
2020/12/27 09:20:32;;;;;;;4.47;1.52;;;2.00;99.90;;;;;;5019340;28;20103;-68
2020/12/27 09:22:59;;;;;;;2.38;1.05;;;2.00;99.90;;;;;;5027097;28;20468;-68
2020/12/27 09:25:27;;;;;;;3.08;0.93;;;2.00;99.90;;;;;;5030687;28;20122;-69
2020/12/27 09:27:54;;;;;;;4.03;1.50;;;2.10;99.60;;;;;;5027010;28;20052;-70
2020/12/27 09:30:25;;;;;;;5.05;1.13;;;2.20;99.70;;;;;;5014627;28;20049;-70
2020/12/27 09:32:59;;;;;;;2.42;1.10;;;2.20;99.50;;;;;;5026310;28;20136;-69
2020/12/27 09:35:27;;;;;;;2.90;0.93;;;2.30;99.30;;;;;;5024269;28;20119;-70
2020/12/27 09:37:54;;;;;;;4.95;1.17;;;2.40;99.20;;;;;;5028816;28;20053;-70
2020/12/27 09:40:34;;;;;;;2.78;1.00;;;2.40;99.00;;;;;;5029606;28;20062;-69
2020/12/27 09:43:04;;;;;;;2.95;0.88;;;2.50;98.70;;;;;;5012210;28;20136;-70
2020/12/27 09:45:32;;;;;;;3.35;1.27;;;2.50;98.60;;;;;;5012771;28;20115;-69
2020/12/27 09:48:03;;;;;;;4.60;1.45;;;2.60;98.80;;;;;;5008671;28;20345;-69
2020/12/27 09:50:32;;;;;;;5.82;1.35;;;2.60;98.70;;;;;;5013650;28;20506;-70
2020/12/27 09:53:00;;;;;;;4.60;1.38;;;2.60;99.00;;;;;;5007635;28;20050;-69
2020/12/27 09:55:27;;;;;;;2.72;0.93;;;2.50;98.70;;;;;;5010978;28;20081;-69
2020/12/27 09:57:53;;;;;;;2.58;1.30;;;2.60;98.50;;;;;;5008651;28;20058;-69
2020/12/27 10:00:21;;;;;;;2.63;1.17;;;2.60;98.70;;;;;;5016913;28;20038;-70
2020/12/27 10:02:47;;;;;;;5.72;1.85;;;2.50;98.60;;;;;;5009812;28;20531;-70
2020/12/27 10:05:14;;;;;;;4.28;1.60;;;2.60;99.00;;;;;;5011269;28;20076;-70
2020/12/27 10:07:41;;;;;;;7.45;1.50;;;2.60;98.70;;;;;;5007746;28;20367;-69
2020/12/27 10:10:09;;;;;;;3.45;1.40;;;2.60;98.70;;;;;;5008927;28;20060;-69
2020/12/27 10:12:36;;;;;;;3.60;1.20;;;2.50;99.10;;;;;;4987904;28;20046;-70
2020/12/27 10:15:08;;;;;;;3.60;1.42;;;2.50;98.90;;;;;;5009270;28;20061;-70
2020/12/27 10:17:35;;;;;;;3.45;1.65;;;2.50;99.30;;;;;;5007426;28;20133;-70
2020/12/27 10:20:03;;;;;;;4.35;1.48;;;2.40;99.10;;;;;;5009488;28;20196;-70
2020/12/27 10:22:29;;;;;;;8.57;1.77;;;2.40;99.30;;;;;;5009013;28;20078;-70
2020/12/27 10:24:56;;;;;;;5.72;1.85;;;2.30;98.90;;;;;;5008218;28;20050;-70
2020/12/27 10:27:22;;;;;;;4.32;1.58;;;2.30;98.90;;;;;;5000766;28;20460;-70
2020/12/27 10:29:49;;;;;;;4.43;1.30;;;2.30;99.20;;;;;;5006112;28;20042;-69
2020/12/27 10:32:15;;;;;;;3.60;1.30;;;2.20;99.00;;;;;;5000798;28;20084;-70
2020/12/27 10:34:41;;;;;;;4.35;1.42;;;2.20;99.50;;;;;;5008896;28;20053;-69
2020/12/27 10:37:08;;;;;;;4.20;1.50;;;2.20;99.20;;;;;;5009279;28;20064;-69
2020/12/27 10:39:34;;;;;;;4.40;1.85;;;2.20;99.10;;;;;;5008852;28;20131;-69
2020/12/27 10:42:01;;;;;;;3.50;1.40;;;2.20;99.30;;;;;;5007525;28;20558;-69
2020/12/27 10:44:28;;;;;;;5.65;1.45;;;2.10;99.10;;;;;;5007034;28;20128;-69
2020/12/27 10:46:54;;;;;;;4.18;1.25;;;2.10;99.30;;;;;;4981225;28;20046;-70
2020/12/27 10:49:22;;;;;;;4.05;1.23;;;2.10;99.50;;;;;;5004860;28;20528;-70
2020/12/27 10:51:49;;;;;;;3.90;1.02;;;2.10;99.70;;;;;;5008208;28;20061;-70
2020/12/27 10:54:15;;;;;;;3.05;1.25;;;2.10;99.50;;;;;;5007786;28;20141;-70
2020/12/27 10:56:43;;;;;;;4.95;1.60;;;2.20;99.50;;;;;;4999443;28;20061;-70
2020/12/27 10:59:10;;;;;;;4.07;1.70;;;2.20;99.70;;;;;;5004882;28;20137;-69
2020/12/27 11:01:45;;;;;;;4.57;1.33;;;2.20;99.60;;;;;;5006873;28;20073;-70
2020/12/27 11:04:12;;;;;;;3.53;1.38;;;2.20;99.50;;;;;;5002660;28;20050;-70
2020/12/27 11:06:39;;;;;;;6.25;1.92;;;2.20;99.40;;;;;;5007138;28;20069;-70
2020/12/27 11:09:06;;;;;;;3.42;1.50;;;2.10;99.20;;;;;;5004731;28;20498;-69
2020/12/27 11:11:34;;;;;;;8.07;3.63;;;2.20;99.40;;;;;;5006890;28;20125;-69
2020/12/27 11:14:02;;;;;;;4.45;1.40;;;2.30;99.20;;;;;;5008396;28;20085;-69
2020/12/27 11:16:31;;;;;;;3.17;1.38;;;2.40;99.10;;;;;;5007546;28;20046;-69
2020/12/27 11:18:58;;;;;;;3.47;1.02;;;2.40;99.00;;;;;;5007875;28;20065;-70
2020/12/27 11:21:24;;;;;;;2.92;1.00;;;2.30;98.90;;;;;;5008816;28;20133;-69
2020/12/27 11:23:51;;;;;;;1.85;1.02;;;2.30;98.90;;;;;;5006922;28;20566;-69
2020/12/27 11:26:18;;;;;;;3.75;1.35;;;2.20;99.00;;;;;;5008224;28;20179;-69
2020/12/27 11:28:45;;;;;;;2.30;0.90;;;2.30;99.30;;;;;;5008091;28;20077;-69
2020/12/27 11:31:17;;;;;;;4.35;1.35;;;2.20;99.10;;;;;;5001022;28;20085;-69
2020/12/27 11:33:44;;;;;;;2.75;1.08;;;2.20;99.20;;;;;;5000315;28;20161;-69
2020/12/27 11:36:11;;;;;;;4.32;1.60;;;2.10;99.10;;;;;;5007858;28;20135;-69
2020/12/27 11:38:38;;;;;;;3.03;1.60;;;2.10;99.20;;;;;;5008011;28;20529;-69
2020/12/27 11:41:04;;;;;;;4.25;1.60;;;2.10;99.30;;;;;;5008268;28;20107;-69
2020/12/27 11:43:31;;;;;;;5.68;1.88;;;2.10;99.70;;;;;;5007493;28;20049;-69
2020/12/27 11:45:58;;;;;;;3.92;1.52;;;2.10;99.30;;;;;;5001991;28;20335;-69
2020/12/27 11:48:26;;;;;;;5.85;2.08;;;2.10;99.20;;;;;;5005978;28;20042;-69
2020/12/27 11:50:53;;;;;;;3.15;1.10;;;2.10;99.50;;;;;;5008010;28;20615;-69
2020/12/27 11:53:19;;;;;;;5.35;2.05;;;2.10;99.40;;;;;;5007850;28;20049;-69
2020/12/27 11:55:46;;;;;;;7.93;2.83;;;2.10;99.40;;;;;;5008096;28;20097;-69
2020/12/27 11:58:12;;;;;;;9.23;3.88;;;2.00;99.30;;;;;;5008113;28;20540;-69
2020/12/27 12:00:38;;;;;;;9.15;3.00;;;2.00;99.80;;;;;;5006107;28;20076;-69
2020/12/27 12:03:05;;;;;;;4.40;1.70;;;2.00;99.60;;;;;;5007357;28;20046;-69
2020/12/27 12:05:31;;;;;;;4.13;1.20;;;2.00;99.80;;;;;;5004934;28;20168;-69
2020/12/27 12:07:58;;;;;;;3.60;1.65;;;2.00;99.30;;;;;;4999286;28;20439;-69
2020/12/27 12:10:24;;;;;;;4.47;1.83;;;2.10;99.60;;;;;;5010937;28;20053;-69
2020/12/27 12:12:51;;;;;;;4.90;1.77;;;2.00;99.80;;;;;;5011390;28;20136;-69
2020/12/27 12:15:17;;;;;;;4.55;1.80;;;2.10;99.60;;;;;;5006719;28;20335;-69
2020/12/27 12:17:43;;;;;;;5.35;1.95;;;2.00;99.70;;;;;;5003277;28;20050;-69
2020/12/27 12:22:54;;;;;;;6.80;1.80;;;2.10;99.50;;;;;;5005497;28;20074;-70
2020/12/27 12:25:21;;;;;;;8.90;1.70;;;2.10;99.70;;;;;;5004869;28;20149;-70
2020/12/27 12:27:47;;;;;;;4.50;1.60;;;2.10;99.30;;;;;;5010497;28;20053;-69
2020/12/27 12:30:14;;;;;;;6.90;2.05;;;2.20;99.30;;;;;;5004458;28;20081;-70
2020/12/27 12:32:41;;;;;;;10.80;2.67;;;2.20;99.20;;;;;;5010585;28;20227;-69
2020/12/27 12:35:07;;;;;;;6.40;2.50;;;2.20;99.30;;;;;;5011624;28;20038;-70
2020/12/27 12:37:33;;;;;;;4.93;2.00;;;2.20;99.30;;;;;;5003162;28;20527;-69
2020/12/27 12:40:00;;;;;;;7.63;1.95;;;2.30;99.60;;;;;;5010675;28;20422;-70
2020/12/27 12:42:33;;;;;;;5.72;1.95;;;2.30;99.30;;;;;;5012645;28;20402;-69
2020/12/27 12:44:59;;;;;;;7.65;2.08;;;2.20;99.10;;;;;;5007624;28;20104;-69
2020/12/27 12:47:26;;;;;;;4.63;2.08;;;2.20;99.10;;;;;;5014539;28;20089;-69
2020/12/27 12:49:52;;;;;;;6.97;2.30;;;2.20;99.60;;;;;;5012145;28;20132;-69
2020/12/27 12:52:19;;;;;;;4.03;1.35;;;2.30;99.40;;;;;;5008971;28;20131;-69
2020/12/27 12:54:45;;;;;;;4.43;1.70;;;2.30;99.10;;;;;;5011469;28;20089;-69
2020/12/27 12:57:11;;;;;;;3.22;1.27;;;2.30;99.50;;;;;;5011626;28;20049;-70
2020/12/27 12:59:38;;;;;;;5.30;1.77;;;2.30;99.40;;;;;;5010331;28;20240;-69
2020/12/27 13:02:05;;;;;;;7.00;2.20;;;2.30;99.90;;;;;;5011116;28;20110;-70
2020/12/27 13:04:32;;;;;;;5.53;1.92;;;2.30;99.90;;;;;;5010792;28;20368;-70
2020/12/27 13:06:58;;;;;;;5.97;1.77;;;2.30;99.80;;;;;;4991503;28;20092;-69
2020/12/27 13:09:24;;;;;;;3.88;1.67;;;2.30;99.90;;;;;;5008078;28;20073;-70
2020/12/27 13:11:51;;;;;;;4.80;1.80;;;2.20;99.90;;;;;;4980620;28;20122;-69